^^
Grace C. Lehan Memorial Weather Station Historical Data
Daily Summary for March 5, 2022 Units:  English    Metric   Both
Daily Weekly Monthly Yearly
  High: Low: Average:
Temperature: 48.2 °F 25.5 °F 35.9 °F
Dew Point: 34.5 °F 23.2 °F 29.1 °F
Humidity: 95.7% 45.8% 78%
Wind Speed: 2.5mph 0mph 0.1mph
Wind Gust: 11mph - -
Wind- - SSW
Pressure: 30.33 in 30.15 in -
Precipitation: 0.00 in    
 
 
Tabular Data for March 5, 2022
Time Temperature Dew Point Pressure Wind Wind Speed Wind Gust Humidity Rainfall Rate (Hourly) solar
00:04 28.5 °F 24.9 °F 30.16 in Calm     86.2% 0.00 in 0 W/m2
00:09 28.4 °F 25 °F 30.17 in Calm     87% 0.00 in 0 W/m2
00:14 28.3 °F 24.9 °F 30.17 in Calm     87% 0.00 in 0 W/m2
00:19 28.3 °F 24.9 °F 30.17 in Calm     87% 0.00 in 0 W/m2
00:24 28.3 °F 24.9 °F 30.16 in Calm     87% 0.00 in 0 W/m2
00:29 28.3 °F 25.2 °F 30.16 in Calm     87.9% 0.00 in 0 W/m2
00:34 28.3 °F 25.2 °F 30.16 in Calm     88% 0.00 in 0 W/m2
00:39 28.3 °F 25.2 °F 30.16 in Calm     88% 0.00 in 0 W/m2
00:44 28.3 °F 25.2 °F 30.16 in Calm     88% 0.00 in 0 W/m2
00:49 28.4 °F 25.3 °F 30.16 in Calm     88% 0.00 in 0 W/m2
00:54 28.4 °F 25.3 °F 30.16 in Calm     88% 0.00 in 0 W/m2
00:59 28.5 °F 25.4 °F 30.16 in Calm     88% 0.00 in 0 W/m2
01:04 28.6 °F 25.5 °F 30.15 in Calm     88% 0.00 in 0 W/m2
01:09 28.6 °F 25.5 °F 30.16 in Calm     88% 0.00 in 0 W/m2
01:14 28.5 °F 25.3 °F 30.16 in Calm     87.6% 0.00 in 0 W/m2
01:19 28.5 °F 25.1 °F 30.16 in Calm     87% 0.00 in 0 W/m2
01:24 28.4 °F 25 °F 30.16 in Calm     87% 0.00 in 0 W/m2
01:29 28.3 °F 24.9 °F 30.16 in Calm     87% 0.00 in 0 W/m2
01:34 28.1 °F 24.9 °F 30.17 in Calm     87.5% 0.00 in 0 W/m2
01:39 28 °F 24.9 °F 30.17 in Calm     87.8% 0.00 in 0 W/m2
01:44 28 °F 24.9 °F 30.17 in Calm     88% 0.00 in 0 W/m2
01:49 28.1 °F 25 °F 30.17 in Calm     88% 0.00 in 0 W/m2
01:54 28.2 °F 25.1 °F 30.17 in Calm     88% 0.00 in 0 W/m2
01:59 28.2 °F 25.1 °F 30.17 in Calm     88% 0.00 in 0 W/m2
02:04 28.1 °F 25 °F 30.17 in Calm     88% 0.00 in 0 W/m2
02:09 28.2 °F 25.3 °F 30.17 in Calm     88.6% 0.00 in 0 W/m2
02:14 28.4 °F 25.6 °F 30.17 in Calm     88.9% 0.00 in 0 W/m2
02:19 28.6 °F 25.5 °F 30.17 in Calm     88.2% 0.00 in 0 W/m2
02:24 28.6 °F 25.5 °F 30.17 in Calm     88% 0.00 in 0 W/m2
02:29 28.4 °F 25.2 °F 30.17 in Calm     87.3% 0.00 in 0 W/m2
02:34 28.2 °F 24.9 °F 30.17 in Calm     87% 0.00 in 0 W/m2
02:39 28.1 °F 24.7 °F 30.18 in Calm     87% 0.00 in 0 W/m2
02:44 27.9 °F 24.5 °F 30.18 in Calm     87% 0.00 in 0 W/m2
02:49 27.8 °F 24.4 °F 30.18 in Calm     87% 0.00 in 0 W/m2
02:54 27.6 °F 24.4 °F 30.18 in Calm     87.7% 0.00 in 0 W/m2
02:59 27.5 °F 24.4 °F 30.18 in Calm     88% 0.00 in 0 W/m2
03:04 27.3 °F 24.1 °F 30.18 in Calm     87.5% 0.00 in 0 W/m2
03:09 27.1 °F 24.1 °F 30.18 in Calm     88% 0.00 in 0 W/m2
03:14 27 °F 24 °F 30.17 in Calm     88% 0.00 in 0 W/m2
03:19 27 °F 23.9 °F 30.17 in Calm     88% 0.00 in 0 W/m2
03:24 26.9 °F 23.9 °F 30.17 in Calm     88.4% 0.00 in 0 W/m2
03:29 26.9 °F 24 °F 30.17 in Calm     88.8% 0.00 in 0 W/m2
03:34 26.9 °F 24.1 °F 30.17 in Calm     89% 0.00 in 0 W/m2
03:39 26.9 °F 24.1 °F 30.17 in Calm     89% 0.00 in 0 W/m2
03:44 26.8 °F 24 °F 30.17 in Calm     89% 0.00 in 0 W/m2
04:09 26.3 °F 23.5 °F 30.17 in Calm     89% 0.00 in 0 W/m2
04:14 26.2 °F 23.4 °F 30.17 in Calm     89% 0.00 in 0 W/m2
04:19 26.1 °F 23.3 °F 30.17 in Calm     89.1% 0.00 in 0 W/m2
04:24 26.1 °F 23.6 °F 30.18 in Calm     90% 0.00 in 0 W/m2
04:29 26.1 °F 23.6 °F 30.17 in Calm     90% 0.00 in 0 W/m2
04:34 26 °F 23.5 °F 30.17 in Calm     90% 0.00 in 0 W/m2
04:39 26 °F 23.5 °F 30.17 in Calm     90% 0.00 in 0 W/m2
04:44 26 °F 23.5 °F 30.17 in Calm     90% 0.00 in 0 W/m2
04:49 26 °F 23.5 °F 30.17 in Calm     90% 0.00 in 0 W/m2
04:54 26 °F 23.7 °F 30.18 in Calm     90.7% 0.00 in 0 W/m2
04:59 26 °F 23.7 °F 30.18 in Calm     91% 0.00 in 0 W/m2
05:04 26 °F 23.7 °F 30.18 in Calm     91% 0.00 in 0 W/m2
05:09 26.1 °F 23.9 °F 30.18 in Calm     91% 0.00 in 0 W/m2
05:14 26.3 °F 24 °F 30.19 in Calm     91% 0.00 in 0 W/m2
05:19 26.4 °F 24.2 °F 30.19 in Calm     91% 0.00 in 0 W/m2
05:24 26.5 °F 24.2 °F 30.19 in Calm     91% 0.00 in 0 W/m2
05:29 26.3 °F 24 °F 30.19 in Calm     91% 0.00 in 0 W/m2
05:34 26.1 °F 23.9 °F 30.19 in Calm     91% 0.00 in 0 W/m2
05:39 26 °F 23.7 °F 30.19 in Calm     90.9% 0.00 in 0 W/m2
05:44 25.8 °F 23.5 °F 30.19 in Calm     90.7% 0.00 in 0 W/m2
05:49 25.6 °F 23.2 °F 30.20 in Calm     90.4% 0.00 in 0 W/m2
05:54 25.5 °F 23.2 °F 30.20 in Calm     90.7% 0.00 in 0 W/m2
05:59 25.5 °F 23.2 °F 30.20 in Calm     91% 0.00 in 0 W/m2
06:04 25.6 °F 23.4 °F 30.20 in Calm     91% 0.00 in 0 W/m2
06:09 25.9 °F 23.8 °F 30.20 in Calm     91.6% 0.00 in 0 W/m2
06:14 26.2 °F 24.2 °F 30.20 in Calm     92% 0.00 in 0 W/m2
06:19 26.3 °F 24.1 °F 30.20 in Calm     91.4% 0.00 in 0 W/m2
06:24 26.2 °F 24 °F 30.21 in Calm     91% 0.00 in 0 W/m2
06:29 26.1 °F 23.8 °F 30.21 in Calm     91% 0.00 in 0 W/m2
06:34 26 °F 23.8 °F 30.21 in Calm     91% 0.00 in 0 W/m2
06:39 26.1 °F 23.9 °F 30.21 in Calm     91% 0.00 in 0 W/m2
06:44 26.3 °F 24.3 °F 30.21 in Calm     92% 0.00 in 0 W/m2
06:49 26.6 °F 24.6 °F 30.21 in Calm     92.4% 0.00 in 0 W/m2
06:54 26.6 °F 25.5 °F 30.21 in Calm     95.7% 0.00 in 0 W/m2
06:59 26.6 °F 24.6 °F 30.22 in Calm     92% 0.00 in 0 W/m2
07:04 26.7 °F 24.7 °F 30.22 in Calm     92% 0.00 in 5 W/m2
07:09 26.6 °F 24.4 °F 30.22 in Calm     91.4% 0.00 in 7 W/m2
07:14 26.6 °F 24.3 °F 30.22 in Calm     91% 0.00 in 9 W/m2
07:19 26.6 °F 24.3 °F 30.23 in Calm     91% 0.00 in 12 W/m2
07:24 26.5 °F 24.2 °F 30.23 in Calm     91% 0.00 in 14 W/m2
07:29 26.4 °F 24.1 °F 30.23 in Calm     91% 0.00 in 21 W/m2
07:34 26.3 °F 24 °F 30.23 in Calm     91% 0.00 in 49 W/m2
07:39 26.5 °F 24.3 °F 30.23 in Calm     91.3% 0.00 in 62 W/m2
07:44 27 °F 25 °F 30.23 in Calm     92% 0.00 in 76 W/m2
07:49 27.7 °F 25.9 °F 30.23 in Calm     92.6% 0.00 in 84 W/m2
07:54 28.5 °F 26.7 °F 30.23 in Calm     93% 0.00 in 93 W/m2
07:59 29.2 °F 27.4 °F 30.23 in Calm     93% 0.00 in 100 W/m2
08:00 29.5 °F 27.7 °F 30.23 in Calm     93% 0.00 in 100 W/m2
08:09 30.5 °F 28.6 °F 30.24 in Calm     92.6% 0.00 in 118 W/m2
08:14 30.9 °F 28.9 °F 30.24 in Calm     92% 0.00 in 153 W/m2
08:19 31.5 °F 29.2 °F 30.25 in Calm     91.2% 0.00 in 188 W/m2
08:24 32.2 °F 29.8 °F 30.25 in Calm     91% 0.00 in 186 W/m2
08:29 33 °F 30.4 °F 30.25 in Calm     90.2% 0.00 in 155 W/m2
08:34 33.7 °F 30.9 °F 30.25 in Calm     89.2% 0.00 in 181 W/m2
08:39 34.4 °F 31 °F 30.25 in Calm     87.3% 0.00 in 236 W/m2
08:44 35.1 °F 31.3 °F 30.25 in Calm     85.8% 0.00 in 223 W/m2
08:49 35.8 °F 31.6 °F 30.25 in Calm     84.3% 0.00 in 232 W/m2
08:54 36.3 °F 31.3 °F 30.25 in Calm     81.8% 0.00 in 183 W/m2
08:59 36.8 °F 31.2 °F 30.25 in Calm     79.9% 0.00 in 174 W/m2
09:04 37.1 °F 30.8 °F 30.26 in Calm     77.8% 0.00 in 181 W/m2
09:08 37.3 °F 30.8 °F 30.26 in Calm     77% 0.00 in 204 W/m2
09:30 38.6 °F 31.4 °F 30.26 in Calm     75% 0.00 in 135 W/m2
10:00 40.1 °F 32.5 °F 30.27 in Calm     74% 0.00 in 98 W/m2
10:30 43.9 °F 32.9 °F 30.26 in Calm   4 mph 65% 0.00 in 294 W/m2
11:00 44.6 °F 31.2 °F 30.25 in Calm   7 mph 59% 0.00 in 160 W/m2
11:30 45.5 °F 28.4 °F 30.25 in South 1 mph 9 mph 51% 0.00 in 124 W/m2
12:04 46.5 °F 29.2 °F 30.25 in South 0.1 mph 9 mph 50.6% 0.00 in 371 W/m2
12:09 46.8 °F 29.3 °F 30.24 in South 0.7 mph 7 mph 50.4% 0.00 in 295 W/m2
12:14 47 °F 29.1 °F 30.24 in SSW 0.1 mph 7 mph 49.4% 0.00 in 320 W/m2
12:19 47.3 °F 29.2 °F 30.24 in SSW 0.3 mph 7 mph 49.2% 0.00 in 135 W/m2
12:24 47.4 °F 29.5 °F 30.24 in SW 0.9 mph 7 mph 49.5% 0.00 in 116 W/m2
12:29 47.6 °F 29.2 °F 30.24 in SSW 0.4 mph 7 mph 48.7% 0.00 in 120 W/m2
12:34 47.8 °F 29.6 °F 30.24 in SW 0.5 mph 7 mph 49% 0.00 in 288 W/m2
12:39 47.9 °F 30.3 °F 30.24 in SW 0.3 mph 5 mph 50.3% 0.00 in 179 W/m2
12:44 48.1 °F 30.7 °F 30.24 in SW 0.4 mph 5 mph 50.7% 0.00 in 176 W/m2
12:49 48.2 °F 30.5 °F 30.24 in SW 0.9 mph 7 mph 50% 0.00 in 192 W/m2
12:54 48.2 °F 30.3 °F 30.23 in South 0.4 mph 7 mph 49.6% 0.00 in 151 W/m2
12:59 48.1 °F 29.6 °F 30.23 in South 1 mph 7 mph 48.6% 0.00 in 216 W/m2
13:04 47.9 °F 29.2 °F 30.23 in South 0.7 mph 7 mph 48.1% 0.00 in 244 W/m2
13:09 47.9 °F 29.2 °F 30.23 in South 0.2 mph 6 mph 48% 0.00 in 244 W/m2
13:14 47.9 °F 29 °F 30.23 in South 1.7 mph 7 mph 47.7% 0.00 in 202 W/m2
13:19 47.9 °F 28.5 °F 30.23 in South 1.5 mph 7 mph 46.8% 0.00 in 186 W/m2
13:24 47.8 °F 28.8 °F 30.22 in South 0.4 mph 7 mph 47.5% 0.00 in 118 W/m2
13:29 47.8 °F 29.1 °F 30.22 in South 0.4 mph 7 mph 48% 0.00 in 116 W/m2
13:34 47.7 °F 28.4 °F 30.22 in South 1.4 mph 8 mph 46.9% 0.00 in 141 W/m2
13:39 47.6 °F 27.7 °F 30.22 in South 2.5 mph 10 mph 45.8% 0.00 in 125 W/m2
13:44 47.4 °F 28 °F 30.22 in South 0.8 mph 10 mph 46.6% 0.00 in 128 W/m2
13:49 47.2 °F 28.7 °F 30.21 in SSW 0.6 mph 10 mph 48.2% 0.00 in 130 W/m2
13:54 47.2 °F 28.3 °F 30.21 in SSW 0.8 mph 10 mph 47.6% 0.00 in 134 W/m2
13:59 47.1 °F 28.5 °F 30.22 in South 0.8 mph 10 mph 48.2% 0.00 in 134 W/m2
14:04 47 °F 29.4 °F 30.22 in South 1.1 mph 10 mph 50% 0.00 in 134 W/m2
14:09 46.9 °F 30.1 °F 30.22 in South 0.4 mph 7 mph 51.7% 0.00 in 120 W/m2
14:14 46.9 °F 30.8 °F 30.22 in South 0.1 mph 7 mph 53.3% 0.00 in 120 W/m2
14:19 46.9 °F 31.3 °F 30.22 in South 0.6 mph 10 mph 54.4% 0.00 in 113 W/m2
14:24 46.9 °F 31.8 °F 30.23 in South 1 mph 10 mph 55.4% 0.00 in 105 W/m2
14:29 46.9 °F 32.3 °F 30.23 in South 1.1 mph 10 mph 56.6% 0.00 in 93 W/m2
14:34 46.8 °F 32.7 °F 30.23 in South 0.7 mph 10 mph 57.6% 0.00 in 90 W/m2
14:39 46.7 °F 32.9 °F 30.23 in South 1.1 mph 9 mph 58.3% 0.00 in 84 W/m2
14:44 46.7 °F 33.4 °F 30.23 in South 0.3 mph 9 mph 59.6% 0.00 in 77 W/m2
14:49 46.5 °F 33.1 °F 30.23 in South 1.3 mph 9 mph 59.3% 0.00 in 77 W/m2
14:54 46.4 °F 33.5 °F 30.24 in SSW 0.4 mph 9 mph 60.4% 0.00 in 72 W/m2
14:59 46.3 °F 33.6 °F 30.24 in SSW 0.4 mph 9 mph 61% 0.00 in 67 W/m2
15:04 46.3 °F 33.6 °F 30.24 in SSW 0.4 mph 9 mph 61% 0.00 in 54 W/m2
15:09 46.2 °F 33.8 °F 30.24 in SSW 0.3 mph 4 mph 61.6% 0.00 in 51 W/m2
15:14 46.2 °F 33.9 °F 30.24 in SSW 1 mph 7 mph 62% 0.00 in 51 W/m2
15:19 46.1 °F 34 °F 30.24 in SSW 0.5 mph 11 mph 62.4% 0.00 in 49 W/m2
15:24 46.1 °F 34.2 °F 30.24 in SSW 0.4 mph 11 mph 63% 0.00 in 44 W/m2
15:29 46 °F 34.1 °F 30.24 in SSW 0.2 mph 11 mph 63% 0.00 in 39 W/m2
15:34 46 °F 34.3 °F 30.25 in SSW 0.1 mph 11 mph 63.4% 0.00 in 35 W/m2
15:39 45.9 °F 34.5 °F 30.25 in SSW 0.3 mph 2 mph 64% 0.00 in 30 W/m2
15:44 45.9 °F 34.4 °F 30.25 in Calm   2 mph 64% 0.00 in 26 W/m2
16:04 45.4 °F 34.3 °F 30.25 in Calm     65% 0.00 in 7 W/m2
16:09 45.3 °F 34.2 °F 30.25 in Calm     65% 0.00 in 7 W/m2
16:14 45.2 °F 34.3 °F 30.25 in Calm     65.5% 0.00 in 5 W/m2
16:19 45.1 °F 34.4 °F 30.26 in Calm     65.8% 0.00 in 0 W/m2
16:24 45 °F 34.3 °F 30.26 in Calm     66% 0.00 in 0 W/m2
16:29 44.9 °F 34.3 °F 30.27 in Calm     66% 0.00 in 0 W/m2
16:34 44.8 °F 34.1 °F 30.27 in Calm     66% 0.00 in 0 W/m2
16:39 44.7 °F 34.1 °F 30.27 in Calm     66.2% 0.00 in 0 W/m2
16:44 44.5 °F 34.3 °F 30.27 in Calm     67% 0.00 in 0 W/m2
16:49 44.4 °F 34.1 °F 30.27 in Calm     67% 0.00 in 0 W/m2
16:54 44.2 °F 34 °F 30.27 in Calm     67% 0.00 in 0 W/m2
16:59 44.1 °F 34 °F 30.27 in Calm     67.5% 0.00 in 0 W/m2
17:04 43.9 °F 34.1 °F 30.27 in Calm     68% 0.00 in 0 W/m2
17:09 43.8 °F 33.9 °F 30.27 in Calm     68% 0.00 in 0 W/m2
17:14 43.6 °F 33.8 °F 30.27 in Calm     68% 0.00 in 0 W/m2
17:19 43.5 °F 34 °F 30.27 in Calm     68.9% 0.00 in 0 W/m2
17:24 43.4 °F 33.9 °F 30.27 in Calm     69% 0.00 in 0 W/m2
17:29 43.3 °F 33.9 °F 30.27 in Calm     69% 0.00 in 0 W/m2
17:34 43.3 °F 33.8 °F 30.27 in Calm     69% 0.00 in 0 W/m2
17:39 43.1 °F 33.7 °F 30.27 in Calm     69% 0.00 in 0 W/m2
17:44 43 °F 33.7 °F 30.27 in Calm     69.4% 0.00 in 0 W/m2
17:49 42.8 °F 33.7 °F 30.27 in Calm     69.8% 0.00 in 0 W/m2
17:54 42.7 °F 33.6 °F 30.27 in Calm     70% 0.00 in 0 W/m2
17:59 42.4 °F 33.4 °F 30.27 in Calm     70% 0.00 in 0 W/m2
18:04 42.3 °F 33.5 °F 30.27 in Calm     70.8% 0.00 in 0 W/m2
18:09 42.1 °F 33.4 °F 30.27 in Calm     71% 0.00 in 0 W/m2
18:14 41.9 °F 33.5 °F 30.28 in Calm     71.8% 0.00 in 0 W/m2
18:19 41.8 °F 33.4 °F 30.28 in Calm     72% 0.00 in 0 W/m2
18:24 41.6 °F 33.4 °F 30.28 in Calm     72.4% 0.00 in 0 W/m2
18:29 41.3 °F 33.3 °F 30.28 in Calm     73% 0.00 in 0 W/m2
18:34 41 °F 33.3 °F 30.28 in Calm     73.8% 0.00 in 0 W/m2
18:39 40.8 °F 33.3 °F 30.28 in Calm     74.4% 0.00 in 0 W/m2
18:44 40.6 °F 33.4 °F 30.28 in Calm     75% 0.00 in 0 W/m2
18:49 40.3 °F 33.1 °F 30.28 in Calm     75% 0.00 in 0 W/m2
18:54 40.1 °F 33.2 °F 30.29 in Calm     76% 0.00 in 0 W/m2
18:59 40 °F 33.4 °F 30.29 in Calm     77% 0.00 in 0 W/m2
19:04 40 °F 33.4 °F 30.29 in Calm     77% 0.00 in 0 W/m2
19:09 39.9 °F 33.3 °F 30.28 in Calm     77% 0.00 in 0 W/m2
19:14 39.9 °F 33.5 °F 30.29 in Calm     77.8% 0.00 in 0 W/m2
19:19 39.8 °F 33.5 °F 30.29 in Calm     77.9% 0.00 in 0 W/m2
19:24 39.7 °F 33.1 °F 30.29 in Calm     77% 0.00 in 0 W/m2
19:29 39.4 °F 32.8 °F 30.30 in Calm     77% 0.00 in 0 W/m2
19:34 39.2 °F 32.6 °F 30.30 in Calm     77% 0.00 in 0 W/m2
19:39 39 °F 32.8 °F 30.30 in Calm     78% 0.00 in 0 W/m2
19:44 38.9 °F 32.6 °F 30.30 in Calm     78% 0.00 in 0 W/m2
19:49 38.8 °F 32.6 °F 30.31 in Calm     78.3% 0.00 in 0 W/m2
19:54 38.6 °F 32.7 °F 30.31 in Calm     78.9% 0.00 in 0 W/m2
19:59 38.5 °F 32.5 °F 30.31 in Calm     79% 0.00 in 0 W/m2
20:09 38.1 °F 32.2 °F 30.31 in Calm     79% 0.00 in 0 W/m2
20:14 38 °F 32.1 °F 30.31 in Calm     79.3% 0.00 in 0 W/m2
20:19 37.9 °F 32.3 °F 30.31 in Calm     80% 0.00 in 0 W/m2
20:24 37.8 °F 32.2 °F 30.32 in Calm     80% 0.00 in 0 W/m2
20:29 37.7 °F 32.4 °F 30.32 in Calm     81% 0.00 in 0 W/m2
20:34 37.8 °F 32.8 °F 30.32 in Calm     82% 0.00 in 0 W/m2
20:39 37.7 °F 32.7 °F 30.32 in Calm     82% 0.00 in 0 W/m2
20:44 37.6 °F 32.6 °F 30.32 in Calm     82% 0.00 in 0 W/m2
20:49 37.4 °F 32.4 °F 30.33 in Calm     82% 0.00 in 0 W/m2
20:54 37.2 °F 32.2 °F 30.33 in Calm     82% 0.00 in 0 W/m2
20:59 37 °F 32 °F 30.33 in Calm     82% 0.00 in 0 W/m2
21:04 36.9 °F 32.2 °F 30.33 in Calm     82.7% 0.00 in 0 W/m2
21:09 36.9 °F 32.2 °F 30.33 in Calm     83% 0.00 in 0 W/m2
21:14 36.9 °F 32.2 °F 30.33 in Calm     83% 0.00 in 0 W/m2
21:19 36.8 °F 32.2 °F 30.33 in Calm     83.2% 0.00 in 0 W/m2
21:24 36.6 °F 32.1 °F 30.33 in Calm     83.6% 0.00 in 0 W/m2
21:29 36.4 °F 32 °F 30.32 in Calm     83.6% 0.00 in 0 W/m2
21:34 36.2 °F 31.8 °F 30.32 in Calm     84% 0.00 in 0 W/m2
21:39 36 °F 31.7 °F 30.32 in Calm     84% 0.00 in 0 W/m2
21:44 35.9 °F 31.7 °F 30.32 in Calm     84.6% 0.00 in 0 W/m2
21:49 35.7 °F 31.6 °F 30.31 in Calm     85% 0.00 in 0 W/m2
21:54 35.5 °F 31.5 °F 30.31 in Calm     85% 0.00 in 0 W/m2
21:59 35.3 °F 31.2 °F 30.31 in Calm     85% 0.00 in 0 W/m2
22:04 35.1 °F 31.1 °F 30.31 in Calm     85% 0.00 in 0 W/m2
22:09 34.9 °F 31 °F 30.31 in Calm     85.3% 0.00 in 0 W/m2
22:14 34.8 °F 31 °F 30.31 in Calm     86% 0.00 in 0 W/m2
22:19 34.7 °F 31 °F 30.31 in Calm     86% 0.00 in 0 W/m2
22:30 34.7 °F 31.2 °F 30.30 in Calm     87% 0.00 in 0 W/m2
23:04 34 °F 30.8 °F 30.31 in Calm     88% 0.00 in 0 W/m2
23:09 34 °F 30.8 °F 30.31 in Calm     88% 0.00 in 0 W/m2
23:14 34 °F 30.8 °F 30.30 in Calm     88% 0.00 in 0 W/m2
23:19 34 °F 30.8 °F 30.30 in Calm     88% 0.00 in 0 W/m2
23:24 33.9 °F 30.7 °F 30.30 in Calm     88% 0.00 in 0 W/m2
23:29 33.9 °F 31 °F 30.30 in Calm     88.9% 0.00 in 0 W/m2
23:34 34 °F 31.1 °F 30.30 in Calm     89% 0.00 in 0 W/m2
23:39 34.1 °F 31.2 °F 30.30 in Calm     89% 0.00 in 0 W/m2
23:44 34.2 °F 31.3 °F 30.31 in Calm     89% 0.00 in 0 W/m2
23:49 34.2 °F 31.3 °F 30.31 in Calm     89% 0.00 in 0 W/m2
23:54 34.2 °F 31.3 °F 30.31 in Calm     89% 0.00 in 0 W/m2
23:59 34.2 °F 31.3 °F 30.31 in Calm     89% 0.00 in 0 W/m2
Hartford County Weather
Compliments of Weather Underground - 4 mb